KELZ/ELZ METAR and TAF weather

Enter ICAO airport designator
Station Type Date Time Source
KELZ METAR 2020/05/30 05:56 UTC NOAA

KELZ 300556Z AUTO 29010KT 10SM FEW013 SCT017 BKN022 12/11 A2998 RMK AO2 SLP148 60001 T01170111 10150 20117 51015


Station Type Date Time Source
KELZ Decoded METAR 2020/05/30 05:56 UTC NOAA

WELLSVILLE MUNICIPAL AIRPORT, NY, United States (KELZ) 42-06N 077-60W 646M
May 30, 2020 - 01:56 AM EDT / 2020.05.30 0556 UTC
Wind: from the WNW (290 degrees) at 12 MPH (10 KT):0
Visibility: 10 mile(s):0
Sky conditions: mostly cloudy
Temperature: 53.1 F (11.7 C)
Dew Point: 52.0 F (11.1 C)
Relative Humidity: 96%
Pressure (altimeter): 29.98 in. Hg (1015 hPa)
Pressure tendency: 0.04 inches (1.5 hPa) higher than three hours ago
ob: KELZ 300556Z AUTO 29010KT 10SM FEW013 SCT017 BKN022 12/11 A2998 RMK AO2 SLP148 60001 T01170111 10150 20117 51015
cycle: 6

Station Type Date Time Source
KELZ TAF UTC NOAA

Error!

Example: see airport list